Time;durP1;ratioP1;P1;durP2;ratioP2;P2;SDS_P1;SDS_P2;PMS_P1;PMS_P2;Temp;Humidity;BMP_temperature;BMP_pressure;BME280_temperature;BME280_humidity;BME280_pressure;Samples;Min_cycle;Max_cycle;Signal;HPM_P1;HPM_P2
2023/12/10 00:00:14;;;;;;;0.57;0.57;;;0.30;99.90;;;;;;5089662;28;20219;-72
2023/12/10 00:02:40;;;;;;;3.75;2.35;;;0.30;99.90;;;;;;5089151;28;20686;-71
2023/12/10 00:05:06;;;;;;;0.80;0.77;;;0.30;99.90;;;;;;5089408;28;20192;-70
2023/12/10 00:07:31;;;;;;;0.68;0.68;;;0.30;99.90;;;;;;5071017;28;20617;-72
2023/12/10 00:09:57;;;;;;;1.13;1.13;;;0.30;99.90;;;;;;5089125;28;20203;-69
2023/12/10 00:12:23;;;;;;;0.70;0.70;;;0.30;99.90;;;;;;5089057;28;20208;-71
2023/12/10 00:14:53;;;;;;;0.70;0.70;;;0.30;99.90;;;;;;5070948;28;20200;-72
2023/12/10 00:17:20;;;;;;;0.82;0.82;;;0.30;99.90;;;;;;5088848;28;20203;-71
2023/12/10 00:19:46;;;;;;;0.65;0.65;;;0.20;99.90;;;;;;5089153;28;20214;-71
2023/12/10 00:22:11;;;;;;;0.80;0.80;;;0.20;99.90;;;;;;5089209;28;20202;-72
2023/12/10 00:24:37;;;;;;;0.80;0.80;;;0.20;99.90;;;;;;5089348;28;20188;-71
2023/12/10 00:27:03;;;;;;;0.70;0.70;;;0.20;99.90;;;;;;5080108;28;20219;-71
2023/12/10 00:29:28;;;;;;;1.35;1.27;;;0.20;99.90;;;;;;5088521;28;20274;-71
2023/12/10 00:31:54;;;;;;;1.00;1.00;;;0.20;99.90;;;;;;5089086;28;20196;-70
2023/12/10 00:34:20;;;;;;;0.80;0.80;;;0.20;99.90;;;;;;5088931;28;20203;-70
2023/12/10 00:36:45;;;;;;;0.65;0.65;;;0.20;99.90;;;;;;5088776;28;20678;-71
2023/12/10 00:39:11;;;;;;;0.85;0.85;;;0.20;99.90;;;;;;5088807;28;20227;-70
2023/12/10 00:41:37;;;;;;;0.70;0.70;;;0.20;99.90;;;;;;5088830;28;20192;-70
2023/12/10 00:44:03;;;;;;;0.60;0.60;;;0.20;99.90;;;;;;5088866;28;20197;-71
2023/12/10 00:46:29;;;;;;;0.70;0.70;;;0.20;99.90;;;;;;5088630;28;20188;-71
2023/12/10 00:48:55;;;;;;;0.60;0.60;;;0.20;99.90;;;;;;5088600;28;20321;-71
2023/12/10 00:51:22;;;;;;;3.65;1.63;;;0.20;99.90;;;;;;5088734;28;20201;-70
2023/12/10 00:53:49;;;;;;;0.80;0.80;;;0.20;99.90;;;;;;5088604;28;20223;-70
2023/12/10 00:56:15;;;;;;;0.70;0.70;;;0.10;99.90;;;;;;5085609;28;20193;-70
2023/12/10 00:58:41;;;;;;;0.68;0.68;;;0.20;99.90;;;;;;5068272;28;20217;-70
2023/12/10 01:01:10;;;;;;;0.60;0.60;;;0.10;99.90;;;;;;5068610;28;20203;-70
2023/12/10 01:03:36;;;;;;;0.70;0.70;;;0.20;99.90;;;;;;5066793;28;20967;-70
2023/12/10 01:06:05;;;;;;;0.60;0.60;;;0.20;99.90;;;;;;5068722;28;20196;-70
2023/12/10 01:08:32;;;;;;;0.70;0.70;;;0.20;99.90;;;;;;5068311;28;20193;-72
2023/12/10 01:11:01;;;;;;;0.80;0.80;;;0.20;99.90;;;;;;5068749;28;20208;-69
2023/12/10 01:13:26;;;;;;;0.88;0.88;;;0.10;99.90;;;;;;5068284;28;20579;-69
2023/12/10 01:15:54;;;;;;;0.70;0.70;;;0.10;99.90;;;;;;5068439;28;20192;-69
2023/12/10 01:18:23;;;;;;;0.70;0.70;;;0.10;99.90;;;;;;5068025;28;20212;-69
2023/12/10 01:20:49;;;;;;;0.70;0.70;;;0.10;99.90;;;;;;5066839;28;20200;-69
2023/12/10 01:23:15;;;;;;;0.85;0.85;;;0.20;99.90;;;;;;5086039;28;20208;-69
2023/12/10 01:25:42;;;;;;;0.70;0.70;;;0.10;99.90;;;;;;5088259;28;20647;-69
2023/12/10 01:28:09;;;;;;;0.60;0.60;;;0.20;99.90;;;;;;5088392;28;20268;-69
2023/12/10 01:30:35;;;;;;;1.20;1.10;;;0.10;99.90;;;;;;5088190;28;20197;-69
2023/12/10 01:33:01;;;;;;;0.60;0.60;;;0.10;99.90;;;;;;5088735;28;20245;-69
2023/12/10 01:35:27;;;;;;;0.60;0.60;;;0.00;99.90;;;;;;5091294;28;20231;-69
2023/12/10 01:37:53;;;;;;;0.70;0.70;;;0.00;99.90;;;;;;5084471;28;20717;-69
2023/12/10 01:40:22;;;;;;;0.70;0.70;;;0.00;99.90;;;;;;5091884;28;20237;-70
2023/12/10 01:42:48;;;;;;;0.75;0.75;;;0.00;99.90;;;;;;5092191;28;20230;-69
2023/12/10 01:45:15;;;;;;;0.68;0.68;;;0.00;99.90;;;;;;5092193;28;20506;-69
2023/12/10 01:47:45;;;;;;;0.63;0.63;;;0.00;99.90;;;;;;5091771;28;20196;-69
2023/12/10 01:50:12;;;;;;;0.75;0.75;;;0.00;99.90;;;;;;5092017;28;20253;-69
2023/12/10 01:52:44;;;;;;;0.90;0.90;;;0.00;99.90;;;;;;5091642;28;20204;-69
2023/12/10 01:55:11;;;;;;;1.58;1.48;;;-0.10;99.90;;;;;;5091654;28;20224;-68
2023/12/10 01:57:37;;;;;;;1.35;1.25;;;0.00;99.90;;;;;;5091716;28;20233;-68
2023/12/10 02:00:08;;;;;;;0.70;0.70;;;0.00;99.90;;;;;;5091804;28;20750;-69
2023/12/10 02:02:38;;;;;;;0.80;0.80;;;-0.10;99.90;;;;;;5091339;28;20196;-69
2023/12/10 02:05:07;;;;;;;0.80;0.80;;;0.00;99.90;;;;;;5091873;28;20204;-69
2023/12/10 02:07:34;;;;;;;0.60;0.60;;;0.00;99.90;;;;;;5091533;28;20200;-69
2023/12/10 02:10:00;;;;;;;0.80;0.80;;;0.00;99.90;;;;;;5092077;28;20655;-69
2023/12/10 02:12:27;;;;;;;1.13;1.02;;;0.00;99.90;;;;;;5090967;28;20204;-69
2023/12/10 02:14:54;;;;;;;1.73;1.25;;;0.00;99.90;;;;;;5091449;28;20216;-69
2023/12/10 02:17:20;;;;;;;0.90;0.90;;;0.00;99.90;;;;;;5089148;28;20202;-69
2023/12/10 02:19:45;;;;;;;1.00;1.00;;;0.00;99.90;;;;;;5083865;28;20303;-65
2023/12/10 02:22:15;;;;;;;0.60;0.60;;;0.00;99.90;;;;;;5091631;28;20695;-66
2023/12/10 02:24:53;;;;;;;1.10;0.90;;;0.00;99.90;;;;;;5091148;28;20203;-66
2023/12/10 02:27:20;;;;;;;0.60;0.60;;;0.00;99.90;;;;;;5090850;28;20195;-65
2023/12/10 02:29:46;;;;;;;0.60;0.60;;;-0.10;99.90;;;;;;5092122;28;20203;-66
2023/12/10 02:32:12;;;;;;;0.80;0.80;;;-0.10;99.90;;;;;;5111943;28;20203;-66
2023/12/10 02:34:37;;;;;;;0.70;0.70;;;-0.10;99.90;;;;;;5111486;28;20226;-67
2023/12/10 02:37:03;;;;;;;0.60;0.60;;;0.00;99.90;;;;;;5092698;28;20203;-67
2023/12/10 02:39:29;;;;;;;0.60;0.60;;;0.00;99.90;;;;;;5111265;28;20191;-69
2023/12/10 02:41:55;;;;;;;0.70;0.70;;;-0.10;99.90;;;;;;5111569;28;20678;-66
2023/12/10 02:44:21;;;;;;;0.70;0.70;;;-0.10;99.90;;;;;;5111299;28;20192;-66
2023/12/10 02:46:50;;;;;;;0.70;0.70;;;-0.10;99.90;;;;;;5110123;28;20283;-66
2023/12/10 02:49:16;;;;;;;0.70;0.70;;;-0.10;99.90;;;;;;5111239;28;20761;-67
2023/12/10 02:51:42;;;;;;;1.42;1.05;;;-0.10;99.90;;;;;;5111048;28;20278;-67
2023/12/10 02:54:07;;;;;;;1.27;0.98;;;-0.10;99.90;;;;;;5110856;28;20271;-65
2023/12/10 02:56:33;;;;;;;0.65;0.65;;;-0.10;99.90;;;;;;5110909;28;20295;-65
2023/12/10 02:58:59;;;;;;;0.75;0.75;;;-0.10;99.90;;;;;;5111252;28;20191;-65
2023/12/10 03:01:25;;;;;;;0.70;0.70;;;-0.10;99.90;;;;;;5092195;28;20238;-66
2023/12/10 03:03:51;;;;;;;0.70;0.70;;;-0.10;99.90;;;;;;5110960;28;20202;-65
2023/12/10 03:06:16;;;;;;;0.93;0.93;;;-0.10;99.90;;;;;;5110878;28;20542;-65
2023/12/10 03:08:42;;;;;;;0.85;0.85;;;-0.10;99.90;;;;;;5110661;28;20192;-65
2023/12/10 03:11:08;;;;;;;1.85;1.33;;;-0.10;99.90;;;;;;5110686;28;20730;-65
2023/12/10 03:13:33;;;;;;;0.82;0.82;;;-0.10;99.90;;;;;;5110651;28;20191;-65
2023/12/10 03:15:59;;;;;;;1.25;1.15;;;-0.20;99.90;;;;;;5110452;28;20293;-66
2023/12/10 03:18:25;;;;;;;0.70;0.70;;;-0.10;99.90;;;;;;5110486;28;20207;-69
2023/12/10 03:20:51;;;;;;;1.15;1.15;;;-0.20;99.90;;;;;;5110615;28;20554;-66
2023/12/10 03:23:17;;;;;;;1.15;1.15;;;-0.20;99.90;;;;;;5110490;28;20194;-65
2023/12/10 03:25:43;;;;;;;0.70;0.70;;;-0.10;99.90;;;;;;5110553;28;20560;-65
2023/12/10 03:28:09;;;;;;;0.82;0.82;;;-0.20;99.90;;;;;;5110438;28;20203;-67
2023/12/10 03:30:35;;;;;;;0.85;0.85;;;-0.10;99.90;;;;;;5110357;28;20248;-72
2023/12/10 03:33:00;;;;;;;4.78;2.83;;;-0.20;99.90;;;;;;5110956;28;20215;-72
2023/12/10 03:35:26;;;;;;;0.70;0.70;;;-0.20;99.90;;;;;;5110298;28;20302;-71
2023/12/10 03:37:52;;;;;;;1.23;1.10;;;-0.20;99.90;;;;;;5110145;28;20218;-72
2023/12/10 03:40:18;;;;;;;0.70;0.70;;;-0.20;99.90;;;;;;5110195;28;20749;-71
2023/12/10 03:42:44;;;;;;;1.08;1.08;;;-0.20;99.90;;;;;;5110641;28;20241;-72
2023/12/10 03:45:10;;;;;;;0.70;0.70;;;-0.20;99.90;;;;;;5109917;28;20188;-71
2023/12/10 03:47:36;;;;;;;0.60;0.60;;;-0.20;99.90;;;;;;5109851;28;20287;-72
2023/12/10 03:50:03;;;;;;;0.70;0.70;;;-0.20;99.90;;;;;;5109995;28;20206;-72
2023/12/10 03:52:29;;;;;;;0.88;0.88;;;-0.20;99.90;;;;;;5125727;27;20199;-70
2023/12/10 03:54:55;;;;;;;0.63;0.63;;;-0.20;99.90;;;;;;5125648;27;20235;-71
2023/12/10 03:57:21;;;;;;;0.70;0.70;;;-0.20;99.90;;;;;;5109354;28;20655;-71
2023/12/10 03:59:47;;;;;;;1.30;1.20;;;-0.20;99.90;;;;;;5110259;28;20236;-69
2023/12/10 04:02:13;;;;;;;4.80;1.92;;;-0.20;99.90;;;;;;5100458;28;20192;-68
2023/12/10 04:04:39;;;;;;;0.70;0.70;;;-0.20;99.90;;;;;;5109602;28;20755;-69
2023/12/10 04:07:04;;;;;;;0.60;0.60;;;-0.20;99.90;;;;;;5109689;28;20228;-69
2023/12/10 04:09:30;;;;;;;0.98;0.98;;;-0.20;99.90;;;;;;5125178;27;20210;-69
2023/12/10 04:11:56;;;;;;;0.60;0.60;;;-0.20;99.90;;;;;;5099371;28;20294;-68
2023/12/10 04:14:22;;;;;;;1.23;1.13;;;-0.20;99.90;;;;;;5090890;28;20815;-69
2023/12/10 04:16:48;;;;;;;0.77;0.77;;;-0.20;99.90;;;;;;5109334;28;20192;-69
2023/12/10 04:19:14;;;;;;;1.30;1.20;;;-0.20;99.90;;;;;;5109362;28;20291;-69
2023/12/10 04:21:39;;;;;;;1.02;1.02;;;-0.30;99.90;;;;;;5109378;28;20191;-69
2023/12/10 04:24:05;;;;;;;0.70;0.70;;;-0.30;99.90;;;;;;5109455;28;20215;-69
2023/12/10 04:26:31;;;;;;;0.77;0.77;;;-0.20;99.90;;;;;;5109202;28;20322;-69
2023/12/10 04:28:57;;;;;;;0.80;0.80;;;-0.20;99.90;;;;;;5109469;28;20199;-69
2023/12/10 04:31:22;;;;;;;0.80;0.80;;;-0.20;99.90;;;;;;5090666;28;20715;-69
2023/12/10 04:33:48;;;;;;;0.90;0.90;;;-0.30;99.90;;;;;;5109213;28;20199;-69
2023/12/10 04:36:14;;;;;;;0.82;0.82;;;-0.30;99.90;;;;;;5109319;28;20202;-69
2023/12/10 04:38:40;;;;;;;0.68;0.68;;;-0.30;99.90;;;;;;5108969;28;20206;-69
2023/12/10 04:41:06;;;;;;;0.65;0.65;;;-0.30;99.90;;;;;;5107686;28;20187;-68
2023/12/10 04:43:32;;;;;;;0.70;0.70;;;-0.30;99.90;;;;;;5088695;28;20311;-69
2023/12/10 04:45:58;;;;;;;0.70;0.70;;;-0.30;99.90;;;;;;5070765;28;20655;-68
2023/12/10 04:48:24;;;;;;;0.95;0.95;;;-0.30;99.90;;;;;;5088988;28;20333;-68
2023/12/10 04:50:50;;;;;;;0.70;0.70;;;-0.30;99.90;;;;;;5089238;28;20274;-68
2023/12/10 04:53:16;;;;;;;0.80;0.80;;;-0.20;99.90;;;;;;5089274;28;20699;-68
2023/12/10 04:55:42;;;;;;;1.88;1.75;;;-0.30;99.90;;;;;;5088655;28;20200;-69
2023/12/10 04:58:09;;;;;;;0.80;0.80;;;-0.30;99.90;;;;;;5088955;28;20257;-68
2023/12/10 05:00:35;;;;;;;0.90;0.90;;;-0.30;99.90;;;;;;5104120;28;20242;-68
2023/12/10 05:03:01;;;;;;;0.93;0.93;;;-0.30;99.90;;;;;;5088789;28;20601;-68
2023/12/10 05:05:26;;;;;;;0.70;0.70;;;-0.30;99.90;;;;;;5088771;28;20211;-68
2023/12/10 05:07:52;;;;;;;0.80;0.80;;;-0.30;99.90;;;;;;5104941;28;20226;-68
2023/12/10 05:10:18;;;;;;;8.88;1.55;;;-0.30;99.90;;;;;;5112560;28;20203;-69
2023/12/10 05:12:43;;;;;;;0.60;0.60;;;-0.30;99.90;;;;;;5113119;28;20674;-68
2023/12/10 05:15:09;;;;;;;0.70;0.70;;;-0.30;99.90;;;;;;5113247;28;20193;-68
2023/12/10 05:17:35;;;;;;;1.05;1.00;;;-0.30;99.90;;;;;;5094254;28;20229;-69
2023/12/10 05:20:02;;;;;;;1.08;1.08;;;-0.30;99.90;;;;;;5094618;28;20750;-68
2023/12/10 05:22:28;;;;;;;0.68;0.68;;;-0.30;99.90;;;;;;5112732;28;20214;-69
2023/12/10 05:24:53;;;;;;;0.70;0.70;;;-0.30;99.90;;;;;;5094387;28;20238;-69
2023/12/10 05:27:19;;;;;;;0.80;0.80;;;-0.30;99.90;;;;;;5112756;28;20188;-68
2023/12/10 05:29:45;;;;;;;1.25;1.23;;;-0.30;99.90;;;;;;5112666;28;20199;-69
2023/12/10 05:32:10;;;;;;;0.70;0.70;;;-0.30;99.90;;;;;;5112838;28;20270;-67
2023/12/10 05:34:36;;;;;;;0.70;0.70;;;-0.30;99.90;;;;;;5094195;28;20206;-68
2023/12/10 05:37:02;;;;;;;0.82;0.82;;;-0.30;99.90;;;;;;5112624;28;20682;-68
2023/12/10 05:39:27;;;;;;;0.70;0.70;;;-0.30;99.90;;;;;;5112102;28;20203;-69
2023/12/10 05:41:53;;;;;;;0.70;0.70;;;-0.30;99.90;;;;;;5112935;28;20227;-68
2023/12/10 05:44:19;;;;;;;0.70;0.70;;;-0.30;99.90;;;;;;5112486;28;20191;-68
2023/12/10 05:46:45;;;;;;;0.70;0.70;;;-0.30;99.90;;;;;;5094016;28;20241;-68
2023/12/10 05:49:10;;;;;;;0.80;0.80;;;-0.30;99.90;;;;;;5112287;28;20224;-68
2023/12/10 05:51:36;;;;;;;0.77;0.77;;;-0.30;99.90;;;;;;5112301;28;20241;-68
2023/12/10 05:54:02;;;;;;;0.80;0.80;;;-0.30;99.90;;;;;;5093988;28;20707;-65
2023/12/10 05:56:28;;;;;;;0.70;0.70;;;-0.30;99.90;;;;;;5093617;28;20210;-68
2023/12/10 05:58:53;;;;;;;0.70;0.70;;;-0.30;99.90;;;;;;5112357;28;20215;-66
2023/12/10 06:01:19;;;;;;;1.08;1.08;;;-0.20;99.90;;;;;;5112197;28;20195;-67
2023/12/10 06:03:45;;;;;;;0.60;0.60;;;-0.20;99.90;;;;;;5111853;28;20252;-67
2023/12/10 06:06:11;;;;;;;0.60;0.60;;;-0.30;99.90;;;;;;5112266;28;20195;-65
2023/12/10 06:08:36;;;;;;;0.70;0.70;;;-0.30;99.90;;;;;;5112200;28;20192;-66
2023/12/10 06:11:02;;;;;;;2.13;1.65;;;-0.30;99.90;;;;;;5112122;28;20562;-66
2023/12/10 06:13:28;;;;;;;0.60;0.60;;;-0.30;99.90;;;;;;5111878;28;20199;-66
2023/12/10 06:15:56;;;;;;;0.68;0.68;;;-0.30;99.90;;;;;;5112022;28;20217;-68
2023/12/10 06:18:22;;;;;;;0.75;0.75;;;-0.30;99.90;;;;;;5111563;28;20203;-66
2023/12/10 06:20:50;;;;;;;0.60;0.60;;;-0.40;99.90;;;;;;5127266;27;20191;-66
2023/12/10 06:23:15;;;;;;;0.70;0.70;;;-0.40;99.90;;;;;;5111757;28;20674;-70
2023/12/10 06:25:41;;;;;;;0.70;0.70;;;-0.40;99.90;;;;;;5111632;28;20253;-67
2023/12/10 06:28:07;;;;;;;0.60;0.60;;;-0.30;99.90;;;;;;5093176;28;20195;-66
2023/12/10 06:30:32;;;;;;;0.90;0.90;;;-0.40;99.90;;;;;;5111601;28;20642;-65
2023/12/10 06:32:58;;;;;;;0.70;0.70;;;-0.30;99.90;;;;;;5092986;28;20199;-66
2023/12/10 06:35:24;;;;;;;1.02;1.02;;;-0.30;99.90;;;;;;5111220;28;20256;-66
2023/12/10 06:37:50;;;;;;;0.60;0.60;;;-0.30;99.90;;;;;;5111573;28;20207;-66
2023/12/10 06:40:16;;;;;;;0.80;0.80;;;-0.30;99.90;;;;;;5111583;28;20670;-65
2023/12/10 06:42:41;;;;;;;6.07;2.33;;;-0.30;99.90;;;;;;5111114;28;20184;-65
2023/12/10 06:45:08;;;;;;;0.80;0.80;;;-0.30;99.90;;;;;;5111495;28;20699;-66
2023/12/10 06:47:33;;;;;;;0.80;0.80;;;-0.30;99.90;;;;;;5092850;28;20203;-66
2023/12/10 06:49:59;;;;;;;0.80;0.80;;;-0.40;99.90;;;;;;5092920;28;20208;-66
2023/12/10 06:52:25;;;;;;;0.60;0.60;;;-0.40;99.90;;;;;;5111469;28;20210;-66
2023/12/10 06:54:51;;;;;;;1.00;1.00;;;-0.40;99.90;;;;;;5092476;28;20235;-66
2023/12/10 06:57:17;;;;;;;0.88;0.88;;;-0.40;99.90;;;;;;5111301;28;20716;-66
2023/12/10 06:59:43;;;;;;;0.60;0.60;;;-0.40;99.90;;;;;;5110596;28;20192;-66
2023/12/10 07:02:09;;;;;;;0.60;0.60;;;-0.30;99.90;;;;;;5090936;28;20543;-69
2023/12/10 07:04:35;;;;;;;0.80;0.80;;;-0.40;99.90;;;;;;5090733;28;20769;-68
2023/12/10 07:07:01;;;;;;;0.70;0.70;;;-0.40;99.90;;;;;;5090510;28;20778;-68
2023/12/10 07:09:27;;;;;;;0.60;0.60;;;-0.40;99.90;;;;;;5090503;28;20220;-68
2023/12/10 07:11:53;;;;;;;0.73;0.73;;;-0.40;99.90;;;;;;5091134;28;20255;-68
2023/12/10 07:14:18;;;;;;;0.70;0.70;;;-0.30;99.90;;;;;;5090429;28;20307;-69
2023/12/10 07:16:44;;;;;;;0.70;0.70;;;-0.30;99.90;;;;;;5090324;28;20184;-68
2023/12/10 07:19:10;;;;;;;0.80;0.80;;;-0.30;99.90;;;;;;5105865;28;20207;-69
2023/12/10 07:21:35;;;;;;;0.70;0.70;;;-0.40;99.90;;;;;;5110359;28;20598;-68
2023/12/10 07:24:01;;;;;;;0.80;0.80;;;-0.30;99.90;;;;;;5110503;28;20274;-68
2023/12/10 07:26:27;;;;;;;0.70;0.70;;;-0.30;99.90;;;;;;5110502;28;20602;-68
2023/12/10 07:28:53;;;;;;;0.70;0.70;;;-0.30;99.90;;;;;;5110366;28;20750;-68
2023/12/10 07:31:18;;;;;;;0.82;0.82;;;-0.40;99.90;;;;;;5095967;28;20287;-68
2023/12/10 07:33:44;;;;;;;0.75;0.75;;;-0.40;99.90;;;;;;5090183;28;20655;-69
2023/12/10 07:36:11;;;;;;;0.70;0.70;;;-0.40;99.90;;;;;;5089995;28;20235;-69
2023/12/10 07:38:37;;;;;;;0.70;0.70;;;-0.40;99.90;;;;;;5106687;28;20670;-68
2023/12/10 07:41:06;;;;;;;0.80;0.80;;;-0.40;99.90;;;;;;5110348;28;20362;-68
2023/12/10 07:43:33;;;;;;;0.70;0.70;;;-0.40;99.90;;;;;;5109993;28;20660;-68
2023/12/10 07:45:59;;;;;;;0.80;0.80;;;-0.40;99.90;;;;;;5092212;28;20192;-68
2023/12/10 07:48:24;;;;;;;0.80;0.80;;;-0.30;99.90;;;;;;5109779;28;20249;-68
2023/12/10 07:50:50;;;;;;;0.75;0.75;;;-0.30;99.90;;;;;;5110316;28;20200;-69
2023/12/10 07:53:17;;;;;;;0.70;0.70;;;-0.40;99.90;;;;;;5091512;28;20325;-69
2023/12/10 07:55:43;;;;;;;0.80;0.80;;;-0.40;99.90;;;;;;5101262;28;20235;-68
2023/12/10 07:58:09;;;;;;;0.73;0.73;;;-0.30;99.90;;;;;;5109070;28;20701;-68
2023/12/10 08:00:35;;;;;;;0.90;0.90;;;-0.40;99.90;;;;;;5109614;28;20192;-68
2023/12/10 08:03:00;;;;;;;0.68;0.68;;;-0.30;99.90;;;;;;5110001;28;20658;-68
2023/12/10 08:05:26;;;;;;;0.63;0.63;;;-0.30;99.90;;;;;;5109718;28;20187;-68
2023/12/10 08:07:52;;;;;;;0.63;0.63;;;-0.30;99.90;;;;;;5109881;28;20192;-68
2023/12/10 08:10:18;;;;;;;0.77;0.77;;;-0.40;99.90;;;;;;5109772;28;20208;-68
2023/12/10 08:12:44;;;;;;;0.70;0.70;;;-0.40;99.90;;;;;;5109981;28;20516;-71
2023/12/10 08:15:10;;;;;;;0.80;0.80;;;-0.40;99.90;;;;;;5110276;28;20199;-72
2023/12/10 08:17:36;;;;;;;0.68;0.68;;;-0.40;99.90;;;;;;5109329;28;20203;-72
2023/12/10 08:20:03;;;;;;;1.15;1.15;;;-0.30;99.90;;;;;;5109745;28;20561;-71
2023/12/10 08:22:28;;;;;;;0.70;0.70;;;-0.40;99.90;;;;;;5109673;28;20192;-72
2023/12/10 08:24:54;;;;;;;0.70;0.70;;;-0.40;99.90;;;;;;5091078;28;20199;-71
2023/12/10 08:27:20;;;;;;;1.63;1.52;;;-0.30;99.90;;;;;;5097311;28;20202;-71
2023/12/10 08:29:46;;;;;;;0.82;0.82;;;-0.30;99.90;;;;;;5091572;28;20257;-73
2023/12/10 08:32:11;;;;;;;0.68;0.68;;;-0.30;99.90;;;;;;5089153;28;20195;-70
2023/12/10 08:38:22;;;;;;;0.75;0.75;;;-0.30;99.90;;;;;;4958725;28;20247;-71
2023/12/10 08:40:47;;;;;;;0.70;0.70;;;-0.40;99.90;;;;;;4998349;28;20243;-71
2023/12/10 08:43:13;;;;;;;0.80;0.80;;;-0.40;99.90;;;;;;5006470;28;20207;-72
2023/12/10 08:45:39;;;;;;;0.70;0.70;;;-0.40;99.90;;;;;;5006243;28;20202;-71
2023/12/10 08:48:05;;;;;;;1.95;1.77;;;-0.30;99.90;;;;;;4989907;28;20206;-71
2023/12/10 08:50:30;;;;;;;0.65;0.65;;;-0.30;99.90;;;;;;4989805;28;20670;-72
2023/12/10 08:52:56;;;;;;;0.70;0.70;;;-0.30;99.90;;;;;;5022328;28;20217;-73
2023/12/10 08:55:21;;;;;;;0.60;0.60;;;-0.40;99.90;;;;;;5026058;28;20226;-74
2023/12/10 08:57:47;;;;;;;0.93;0.93;;;-0.30;99.90;;;;;;5026009;28;20241;-71
2023/12/10 09:00:14;;;;;;;0.77;0.77;;;-0.30;99.90;;;;;;5009590;28;20198;-72
2023/12/10 09:02:40;;;;;;;1.10;1.10;;;-0.30;99.90;;;;;;5025794;28;20248;-72
2023/12/10 09:05:06;;;;;;;0.75;0.75;;;-0.30;99.90;;;;;;5026042;28;20206;-71
2023/12/10 09:07:31;;;;;;;1.10;1.10;;;-0.20;99.90;;;;;;5025795;28;20237;-71
2023/12/10 09:09:59;;;;;;;2.05;1.15;;;-0.30;99.90;;;;;;5025874;28;20686;-73
2023/12/10 09:12:28;;;;;;;0.70;0.70;;;-0.20;99.90;;;;;;5025694;28;20205;-71
2023/12/10 09:14:54;;;;;;;0.80;0.80;;;-0.20;99.90;;;;;;5067338;28;20220;-73
2023/12/10 09:17:20;;;;;;;0.70;0.70;;;-0.20;99.90;;;;;;5088519;28;20291;-71
2023/12/10 09:19:46;;;;;;;0.80;0.80;;;-0.20;99.90;;;;;;5088631;28;20196;-71
2023/12/10 09:22:12;;;;;;;0.73;0.73;;;-0.20;99.90;;;;;;5070639;28;20207;-72
2023/12/10 09:24:39;;;;;;;0.70;0.70;;;-0.30;99.90;;;;;;5108821;28;20214;-73
2023/12/10 09:27:05;;;;;;;0.80;0.80;;;-0.20;99.90;;;;;;5108852;28;20964;-72
2023/12/10 09:29:38;;;;;;;0.60;0.60;;;-0.20;99.90;;;;;;5108617;28;20207;-71
2023/12/10 09:32:05;;;;;;;0.70;0.70;;;-0.20;99.90;;;;;;5111057;28;20295;-70
2023/12/10 09:34:32;;;;;;;0.70;0.70;;;-0.20;99.90;;;;;;5110765;28;20236;-68
2023/12/10 09:36:58;;;;;;;2.55;1.48;;;-0.20;99.90;;;;;;5108796;28;20203;-70
2023/12/10 09:39:24;;;;;;;0.70;0.70;;;-0.10;99.90;;;;;;5108514;28;20195;-70
2023/12/10 09:41:50;;;;;;;1.20;1.17;;;-0.10;99.90;;;;;;5108369;28;20190;-69
2023/12/10 09:44:16;;;;;;;0.63;0.63;;;-0.10;99.90;;;;;;5108652;28;20558;-69
2023/12/10 09:46:42;;;;;;;0.98;0.85;;;0.00;99.90;;;;;;5108409;28;20767;-69
2023/12/10 09:49:07;;;;;;;0.70;0.70;;;0.00;99.90;;;;;;5108109;28;20428;-69
2023/12/10 09:51:33;;;;;;;1.85;1.52;;;0.00;99.90;;;;;;5108519;28;20210;-69
2023/12/10 09:53:59;;;;;;;1.35;1.25;;;0.10;99.90;;;;;;5108426;28;20215;-69
2023/12/10 09:56:24;;;;;;;1.05;1.00;;;0.10;99.90;;;;;;5111556;28;20203;-69
2023/12/10 09:58:50;;;;;;;0.70;0.70;;;0.20;99.90;;;;;;5112187;28;20211;-69
2023/12/10 10:01:16;;;;;;;1.75;1.33;;;0.10;99.90;;;;;;5093909;28;20639;-69
2023/12/10 10:03:41;;;;;;;1.00;1.00;;;0.10;99.90;;;;;;5111991;28;20195;-69
2023/12/10 10:06:08;;;;;;;0.70;0.70;;;0.10;99.90;;;;;;5112099;28;20241;-68
2023/12/10 10:08:34;;;;;;;0.80;0.80;;;0.10;99.90;;;;;;5112113;28;20191;-69
2023/12/10 10:11:00;;;;;;;0.63;0.63;;;0.10;99.90;;;;;;5112551;28;20196;-69
2023/12/10 10:13:26;;;;;;;0.77;0.77;;;0.10;99.90;;;;;;5093794;28;20256;-69
2023/12/10 10:15:53;;;;;;;0.70;0.70;;;0.10;99.90;;;;;;5112017;28;20253;-69
2023/12/10 10:18:20;;;;;;;0.63;0.63;;;0.20;99.90;;;;;;5111657;28;20238;-69
2023/12/10 10:20:47;;;;;;;1.02;1.02;;;0.20;99.90;;;;;;5091952;28;20192;-69
2023/12/10 10:23:14;;;;;;;0.90;0.90;;;0.10;99.90;;;;;;5091244;28;20725;-69
2023/12/10 10:25:40;;;;;;;0.80;0.80;;;0.10;99.90;;;;;;5091233;28;20192;-69
2023/12/10 10:28:09;;;;;;;0.60;0.60;;;0.10;99.90;;;;;;5091526;28;20188;-68
2023/12/10 10:30:35;;;;;;;0.80;0.80;;;0.00;99.90;;;;;;5091335;28;20188;-68
2023/12/10 10:33:01;;;;;;;0.60;0.60;;;0.00;99.90;;;;;;5091188;28;20204;-70
2023/12/10 10:35:27;;;;;;;0.65;0.65;;;0.00;99.90;;;;;;5091254;28;20197;-70
2023/12/10 10:37:54;;;;;;;0.70;0.70;;;0.00;99.90;;;;;;5101873;28;20651;-70
2023/12/10 10:40:20;;;;;;;0.98;0.98;;;0.00;99.90;;;;;;5111285;28;20655;-70
2023/12/10 10:42:46;;;;;;;0.70;0.70;;;0.00;99.90;;;;;;5111430;28;20219;-70
2023/12/10 10:45:11;;;;;;;0.60;0.60;;;0.00;99.90;;;;;;5100869;28;20693;-70
2023/12/10 10:47:37;;;;;;;0.70;0.70;;;0.00;99.90;;;;;;5111152;28;20184;-69
2023/12/10 10:50:04;;;;;;;0.73;0.73;;;0.00;99.90;;;;;;5111047;28;20195;-70
2023/12/10 10:52:33;;;;;;;0.70;0.70;;;-0.10;99.90;;;;;;5111111;28;20647;-70
2023/12/10 10:55:00;;;;;;;0.63;0.63;;;0.00;99.90;;;;;;5111419;28;20227;-70
2023/12/10 10:57:35;;;;;;;0.70;0.70;;;-0.10;99.90;;;;;;5111033;28;20580;-70
2023/12/10 11:00:21;;;;;;;1.08;1.02;;;-0.10;99.90;;;;;;5092517;28;20723;-70
2023/12/10 11:02:54;;;;;;;0.75;0.75;;;-0.10;99.90;;;;;;5126515;27;20195;-70
2023/12/10 11:05:35;;;;;;;0.80;0.80;;;-0.10;99.90;;;;;;5110677;28;20201;-70
2023/12/10 11:08:06;;;;;;;0.98;0.98;;;-0.10;99.90;;;;;;5109879;28;20237;-70
2023/12/10 11:10:33;;;;;;;0.80;0.80;;;-0.10;99.90;;;;;;5110574;28;20195;-70
2023/12/10 11:13:00;;;;;;;0.77;0.77;;;-0.10;99.90;;;;;;5110935;28;20202;-69
2023/12/10 11:15:30;;;;;;;0.63;0.63;;;-0.10;99.90;;;;;;5085776;28;20203;-70
2023/12/10 11:17:58;;;;;;;1.25;1.15;;;0.00;99.90;;;;;;5090147;28;20199;-69
2023/12/10 11:20:40;;;;;;;0.73;0.73;;;0.00;99.90;;;;;;5090365;28;20734;-70
2023/12/10 11:23:15;;;;;;;0.70;0.70;;;-0.10;99.90;;;;;;5088767;28;20203;-70
2023/12/10 11:25:41;;;;;;;1.38;1.27;;;-0.10;99.90;;;;;;5089998;28;20200;-70
2023/12/10 11:28:12;;;;;;;1.25;1.15;;;-0.10;99.90;;;;;;5090096;28;20275;-70
2023/12/10 11:30:42;;;;;;;1.40;1.25;;;-0.10;99.90;;;;;;5089780;28;20279;-69
2023/12/10 11:33:09;;;;;;;0.68;0.68;;;-0.10;99.90;;;;;;5090202;28;20194;-70
2023/12/10 11:35:36;;;;;;;0.70;0.70;;;-0.10;99.90;;;;;;5090093;28;20200;-70
2023/12/10 11:38:02;;;;;;;0.73;0.73;;;-0.10;99.90;;;;;;5102092;28;20230;-70
2023/12/10 11:40:28;;;;;;;0.80;0.80;;;-0.10;99.90;;;;;;5103257;28;20664;-70
2023/12/10 11:43:04;;;;;;;0.63;0.63;;;-0.10;99.90;;;;;;5107234;28;20376;-72
2023/12/10 11:45:30;;;;;;;0.65;0.65;;;-0.20;99.90;;;;;;5110110;28;20660;-72
2023/12/10 11:47:56;;;;;;;0.70;0.70;;;-0.10;99.90;;;;;;5110260;28;20651;-72
2023/12/10 11:50:22;;;;;;;0.70;0.70;;;-0.10;99.90;;;;;;5091826;28;20234;-71
2023/12/10 11:52:48;;;;;;;0.82;0.80;;;-0.20;99.90;;;;;;5091509;28;20235;-72
2023/12/10 11:55:14;;;;;;;1.45;1.35;;;-0.10;99.90;;;;;;5109837;28;20234;-72
2023/12/10 11:57:44;;;;;;;1.08;1.08;;;-0.10;99.90;;;;;;5091400;28;20634;-72
2023/12/10 12:00:11;;;;;;;0.80;0.80;;;-0.10;99.90;;;;;;5109530;28;20198;-73
2023/12/10 12:02:44;;;;;;;0.80;0.80;;;-0.10;99.90;;;;;;5109568;28;20226;-72
2023/12/10 12:05:12;;;;;;;0.88;0.88;;;-0.10;99.90;;;;;;5109825;28;20833;-72
2023/12/10 12:07:41;;;;;;;0.80;0.80;;;-0.10;99.90;;;;;;5109564;28;20219;-71
2023/12/10 12:10:08;;;;;;;0.70;0.70;;;-0.10;99.90;;;;;;5110019;28;20207;-71
2023/12/10 12:12:40;;;;;;;0.70;0.70;;;-0.10;99.90;;;;;;5095594;28;20218;-72
2023/12/10 12:15:06;;;;;;;0.70;0.70;;;0.00;99.90;;;;;;5071307;28;20196;-72
2023/12/10 12:17:32;;;;;;;0.73;0.73;;;0.00;99.90;;;;;;5088789;28;20204;-72
2023/12/10 12:20:22;;;;;;;0.70;0.70;;;0.00;99.90;;;;;;5089107;28;20277;-72
2023/12/10 12:22:48;;;;;;;0.60;0.60;;;0.00;99.90;;;;;;5089209;28;20193;-71
2023/12/10 12:25:14;;;;;;;0.68;0.68;;;-0.10;99.90;;;;;;5089232;28;20207;-73
2023/12/10 12:27:40;;;;;;;0.70;0.70;;;-0.10;99.90;;;;;;5088889;28;20660;-72
2023/12/10 12:30:07;;;;;;;0.68;0.68;;;-0.10;99.90;;;;;;5070911;28;20203;-72
2023/12/10 12:32:33;;;;;;;0.77;0.77;;;-0.10;99.90;;;;;;5088885;28;20195;-72
2023/12/10 12:34:59;;;;;;;0.70;0.70;;;-0.20;99.90;;;;;;5089114;28;20196;-72
2023/12/10 12:37:25;;;;;;;1.25;1.15;;;-0.20;99.90;;;;;;5100908;28;20207;-72
2023/12/10 12:39:54;;;;;;;0.88;0.88;;;-0.20;99.90;;;;;;5091042;28;20192;-71
2023/12/10 12:42:20;;;;;;;0.75;0.75;;;-0.20;99.90;;;;;;5109158;28;20195;-71
2023/12/10 12:44:47;;;;;;;0.75;0.75;;;-0.20;99.90;;;;;;5109304;28;20210;-72
2023/12/10 12:47:13;;;;;;;0.80;0.80;;;-0.20;99.90;;;;;;5109303;28;20206;-73
2023/12/10 12:49:39;;;;;;;0.73;0.73;;;-0.10;99.90;;;;;;5109048;28;20590;-72